sensor_id;sensor_type;location;lat;lon;timestamp;temperature;humidity
67275;DHT22;55463;52.324;5.122;2023-06-04T00:00:42;13.35;72.94
67275;DHT22;55463;52.324;5.122;2023-06-04T00:03:07;13.29;73.15
67275;DHT22;55463;52.324;5.122;2023-06-04T00:05:32;13.31;73.22
67275;DHT22;55463;52.324;5.122;2023-06-04T00:07:58;13.29;73.26
67275;DHT22;55463;52.324;5.122;2023-06-04T00:10:23;13.31;73.01
67275;DHT22;55463;52.324;5.122;2023-06-04T00:12:48;13.24;73.48
67275;DHT22;55463;52.324;5.122;2023-06-04T00:15:14;13.19;73.82
67275;DHT22;55463;52.324;5.122;2023-06-04T00:17:41;13.15;73.95
67275;DHT22;55463;52.324;5.122;2023-06-04T00:20:07;13.17;73.13
67275;DHT22;55463;52.324;5.122;2023-06-04T00:22:33;13.07;74.14
67275;DHT22;55463;52.324;5.122;2023-06-04T00:24:58;13.10;73.92
67275;DHT22;55463;52.324;5.122;2023-06-04T00:27:23;13.05;73.94
67275;DHT22;55463;52.324;5.122;2023-06-04T00:29:49;12.96;74.04
67275;DHT22;55463;52.324;5.122;2023-06-04T00:32:14;12.96;74.06
67275;DHT22;55463;52.324;5.122;2023-06-04T00:34:39;12.88;74.77
67275;DHT22;55463;52.324;5.122;2023-06-04T00:37:05;12.87;74.41
67275;DHT22;55463;52.324;5.122;2023-06-04T00:39:31;12.81;74.69
67275;DHT22;55463;52.324;5.122;2023-06-04T00:41:56;12.80;74.61
67275;DHT22;55463;52.324;5.122;2023-06-04T00:44:22;12.79;74.52
67275;DHT22;55463;52.324;5.122;2023-06-04T00:46:48;12.77;74.22
67275;DHT22;55463;52.324;5.122;2023-06-04T00:49:14;12.73;74.58
67275;DHT22;55463;52.324;5.122;2023-06-04T00:51:40;12.69;74.33
67275;DHT22;55463;52.324;5.122;2023-06-04T00:54:07;12.67;74.22
67275;DHT22;55463;52.324;5.122;2023-06-04T00:56:37;12.64;74.76
67275;DHT22;55463;52.324;5.122;2023-06-04T00:59:07;12.59;74.74
67275;DHT22;55463;52.324;5.122;2023-06-04T01:04:31;12.56;74.95
67275;DHT22;55463;52.324;5.122;2023-06-04T01:06:58;12.52;75.64
67275;DHT22;55463;52.324;5.122;2023-06-04T01:09:28;12.53;74.90
67275;DHT22;55463;52.324;5.122;2023-06-04T01:11:54;12.52;75.09
67275;DHT22;55463;52.324;5.122;2023-06-04T01:14:22;12.46;75.15
67275;DHT22;55463;52.324;5.122;2023-06-04T01:16:53;12.42;75.50
67275;DHT22;55463;52.324;5.122;2023-06-04T01:20:24;12.42;75.37
67275;DHT22;55463;52.324;5.122;2023-06-04T01:25:32;12.36;75.57
67275;DHT22;55463;52.324;5.122;2023-06-04T01:27:58;12.31;75.62
67275;DHT22;55463;52.324;5.122;2023-06-04T01:30:29;12.31;75.52
67275;DHT22;55463;52.324;5.122;2023-06-04T01:32:55;12.25;76.35
67275;DHT22;55463;52.324;5.122;2023-06-04T01:35:21;12.21;76.35
67275;DHT22;55463;52.324;5.122;2023-06-04T01:37:47;12.20;76.34
67275;DHT22;55463;52.324;5.122;2023-06-04T01:40:13;12.15;76.19
67275;DHT22;55463;52.324;5.122;2023-06-04T01:42:40;12.17;76.12
67275;DHT22;55463;52.324;5.122;2023-06-04T01:45:06;12.11;75.70
67275;DHT22;55463;52.324;5.122;2023-06-04T01:47:32;12.08;75.99
67275;DHT22;55463;52.324;5.122;2023-06-04T01:49:57;12.05;76.75
67275;DHT22;55463;52.324;5.122;2023-06-04T01:52:23;12.02;76.40
67275;DHT22;55463;52.324;5.122;2023-06-04T01:54:49;12.00;76.66
67275;DHT22;55463;52.324;5.122;2023-06-04T01:57:18;11.94;76.89
67275;DHT22;55463;52.324;5.122;2023-06-04T01:59:43;11.90;77.48
67275;DHT22;55463;52.324;5.122;2023-06-04T02:02:10;11.87;77.88
67275;DHT22;55463;52.324;5.122;2023-06-04T02:04:35;11.84;77.34
67275;DHT22;55463;52.324;5.122;2023-06-04T02:07:02;11.80;77.36
67275;DHT22;55463;52.324;5.122;2023-06-04T02:09:27;11.76;78.02
67275;DHT22;55463;52.324;5.122;2023-06-04T02:11:53;11.76;77.94
67275;DHT22;55463;52.324;5.122;2023-06-04T02:14:18;11.73;77.90
67275;DHT22;55463;52.324;5.122;2023-06-04T02:16:43;11.73;78.02
67275;DHT22;55463;52.324;5.122;2023-06-04T02:19:09;11.72;78.06
67275;DHT22;55463;52.324;5.122;2023-06-04T02:21:38;11.70;78.40
67275;DHT22;55463;52.324;5.122;2023-06-04T02:24:03;11.72;78.66
67275;DHT22;55463;52.324;5.122;2023-06-04T02:26:28;11.67;78.77
67275;DHT22;55463;52.324;5.122;2023-06-04T02:28:54;11.66;78.19
67275;DHT22;55463;52.324;5.122;2023-06-04T02:31:19;11.66;78.60
67275;DHT22;55463;52.324;5.122;2023-06-04T02:33:44;11.65;78.64
67275;DHT22;55463;52.324;5.122;2023-06-04T02:36:10;11.63;78.97
67275;DHT22;55463;52.324;5.122;2023-06-04T02:38:35;11.62;79.44
67275;DHT22;55463;52.324;5.122;2023-06-04T02:41:00;11.61;78.62
67275;DHT22;55463;52.324;5.122;2023-06-04T02:43:26;11.55;79.11
67275;DHT22;55463;52.324;5.122;2023-06-04T02:45:51;11.52;79.94
67275;DHT22;55463;52.324;5.122;2023-06-04T02:48:16;11.58;78.92
67275;DHT22;55463;52.324;5.122;2023-06-04T02:50:42;11.53;79.03
67275;DHT22;55463;52.324;5.122;2023-06-04T02:53:07;11.51;79.76
67275;DHT22;55463;52.324;5.122;2023-06-04T02:55:33;11.49;79.66
67275;DHT22;55463;52.324;5.122;2023-06-04T02:57:59;11.46;79.86
67275;DHT22;55463;52.324;5.122;2023-06-04T03:00:25;11.45;79.31
67275;DHT22;55463;52.324;5.122;2023-06-04T03:02:51;11.39;80.39
67275;DHT22;55463;52.324;5.122;2023-06-04T03:05:16;11.39;79.76
67275;DHT22;55463;52.324;5.122;2023-06-04T03:07:44;11.39;79.34
67275;DHT22;55463;52.324;5.122;2023-06-04T03:10:11;11.34;79.51
67275;DHT22;55463;52.324;5.122;2023-06-04T03:12:36;11.34;79.93
67275;DHT22;55463;52.324;5.122;2023-06-04T03:15:02;11.32;80.43
67275;DHT22;55463;52.324;5.122;2023-06-04T03:17:30;11.29;79.52
67275;DHT22;55463;52.324;5.122;2023-06-04T03:19:56;11.27;80.23
67275;DHT22;55463;52.324;5.122;2023-06-04T03:22:22;11.25;80.58
67275;DHT22;55463;52.324;5.122;2023-06-04T03:24:47;11.19;81.17
67275;DHT22;55463;52.324;5.122;2023-06-04T03:27:13;11.18;80.63
67275;DHT22;55463;52.324;5.122;2023-06-04T03:29:38;11.18;80.34
67275;DHT22;55463;52.324;5.122;2023-06-04T03:32:04;11.12;81.03
67275;DHT22;55463;52.324;5.122;2023-06-04T03:34:31;11.14;80.70
67275;DHT22;55463;52.324;5.122;2023-06-04T03:36:57;11.11;81.63
67275;DHT22;55463;52.324;5.122;2023-06-04T03:39:23;11.15;80.77
67275;DHT22;55463;52.324;5.122;2023-06-04T03:41:49;11.19;80.70
67275;DHT22;55463;52.324;5.122;2023-06-04T03:44:16;11.18;80.93
67275;DHT22;55463;52.324;5.122;2023-06-04T03:46:42;11.22;80.81
67275;DHT22;55463;52.324;5.122;2023-06-04T03:49:12;11.24;80.55
67275;DHT22;55463;52.324;5.122;2023-06-04T03:51:38;11.25;80.94
67275;DHT22;55463;52.324;5.122;2023-06-04T03:54:04;11.25;80.71
67275;DHT22;55463;52.324;5.122;2023-06-04T03:56:29;11.25;81.15
67275;DHT22;55463;52.324;5.122;2023-06-04T03:58:55;11.24;80.95
67275;DHT22;55463;52.324;5.122;2023-06-04T04:01:21;11.24;80.95
67275;DHT22;55463;52.324;5.122;2023-06-04T04:03:48;11.28;81.59
67275;DHT22;55463;52.324;5.122;2023-06-04T04:06:15;11.29;81.81
67275;DHT22;55463;52.324;5.122;2023-06-04T04:08:40;11.29;82.10
67275;DHT22;55463;52.324;5.122;2023-06-04T04:11:11;11.32;81.77
67275;DHT22;55463;52.324;5.122;2023-06-04T04:13:36;11.34;82.32
67275;DHT22;55463;52.324;5.122;2023-06-04T04:16:02;11.38;81.30
67275;DHT22;55463;52.324;5.122;2023-06-04T04:18:27;11.39;81.69
67275;DHT22;55463;52.324;5.122;2023-06-04T04:20:52;11.43;82.55
67275;DHT22;55463;52.324;5.122;2023-06-04T04:23:18;11.43;81.79
67275;DHT22;55463;52.324;5.122;2023-06-04T04:25:43;11.49;82.53
67275;DHT22;55463;52.324;5.122;2023-06-04T04:28:09;11.52;81.97
67275;DHT22;55463;52.324;5.122;2023-06-04T04:30:35;11.53;82.71
67275;DHT22;55463;52.324;5.122;2023-06-04T04:33:01;11.56;82.74
67275;DHT22;55463;52.324;5.122;2023-06-04T04:35:27;11.59;82.27
67275;DHT22;55463;52.324;5.122;2023-06-04T04:37:54;11.65;82.13
67275;DHT22;55463;52.324;5.122;2023-06-04T04:40:19;11.67;83.13
67275;DHT22;55463;52.324;5.122;2023-06-04T04:42:46;11.70;83.09
67275;DHT22;55463;52.324;5.122;2023-06-04T04:45:11;11.72;82.92
67275;DHT22;55463;52.324;5.122;2023-06-04T04:47:37;11.76;82.93
67275;DHT22;55463;52.324;5.122;2023-06-04T04:50:03;11.83;82.65
67275;DHT22;55463;52.324;5.122;2023-06-04T04:52:28;11.87;82.89
67275;DHT22;55463;52.324;5.122;2023-06-04T04:54:53;11.91;83.01
67275;DHT22;55463;52.324;5.122;2023-06-04T04:57:21;12.01;82.97
67275;DHT22;55463;52.324;5.122;2023-06-04T04:59:47;12.05;82.57
67275;DHT22;55463;52.324;5.122;2023-06-04T05:02:13;12.10;83.05
67275;DHT22;55463;52.324;5.122;2023-06-04T05:04:38;12.15;82.41
67275;DHT22;55463;52.324;5.122;2023-06-04T05:07:04;12.24;82.74
67275;DHT22;55463;52.324;5.122;2023-06-04T05:09:29;12.29;82.10
67275;DHT22;55463;52.324;5.122;2023-06-04T05:11:54;12.38;82.30
67275;DHT22;55463;52.324;5.122;2023-06-04T05:14:20;12.45;82.48
67275;DHT22;55463;52.324;5.122;2023-06-04T05:16:46;12.56;82.35
67275;DHT22;55463;52.324;5.122;2023-06-04T05:19:13;12.63;81.99
67275;DHT22;55463;52.324;5.122;2023-06-04T05:21:39;12.72;82.01
67275;DHT22;55463;52.324;5.122;2023-06-04T05:24:04;12.81;81.25
67275;DHT22;55463;52.324;5.122;2023-06-04T05:26:30;12.91;81.26
67275;DHT22;55463;52.324;5.122;2023-06-04T05:28:55;13.05;81.19
67275;DHT22;55463;52.324;5.122;2023-06-04T05:31:21;13.24;81.13
67275;DHT22;55463;52.324;5.122;2023-06-04T05:33:47;13.35;80.91
67275;DHT22;55463;52.324;5.122;2023-06-04T05:36:13;13.55;80.81
67275;DHT22;55463;52.324;5.122;2023-06-04T05:38:39;13.70;80.06
67275;DHT22;55463;52.324;5.122;2023-06-04T05:41:04;13.81;79.26
67275;DHT22;55463;52.324;5.122;2023-06-04T05:43:30;14.03;79.30
67275;DHT22;55463;52.324;5.122;2023-06-04T05:45:55;14.13;78.42
67275;DHT22;55463;52.324;5.122;2023-06-04T05:48:21;14.14;77.44
67275;DHT22;55463;52.324;5.122;2023-06-04T05:50:46;14.39;78.31
67275;DHT22;55463;52.324;5.122;2023-06-04T05:53:12;14.55;76.55
67275;DHT22;55463;52.324;5.122;2023-06-04T05:55:38;14.77;77.15
67275;DHT22;55463;52.324;5.122;2023-06-04T05:58:03;14.84;76.25
67275;DHT22;55463;52.324;5.122;2023-06-04T06:00:28;15.05;75.35
67275;DHT22;55463;52.324;5.122;2023-06-04T06:02:55;15.22;74.91
67275;DHT22;55463;52.324;5.122;2023-06-04T06:05:20;15.45;74.59
67275;DHT22;55463;52.324;5.122;2023-06-04T06:07:46;15.56;73.43
67275;DHT22;55463;52.324;5.122;2023-06-04T06:10:12;15.74;72.78
67275;DHT22;55463;52.324;5.122;2023-06-04T06:12:38;16.01;72.52
67275;DHT22;55463;52.324;5.122;2023-06-04T06:15:04;16.03;70.11
67275;DHT22;55463;52.324;5.122;2023-06-04T06:17:30;16.22;71.41
67275;DHT22;55463;52.324;5.122;2023-06-04T06:19:56;16.49;70.82
67275;DHT22;55463;52.324;5.122;2023-06-04T06:22:22;16.63;69.77
67275;DHT22;55463;52.324;5.122;2023-06-04T06:24:48;16.76;67.81
67275;DHT22;55463;52.324;5.122;2023-06-04T06:27:16;17.01;69.38
67275;DHT22;55463;52.324;5.122;2023-06-04T06:29:42;17.28;69.05
67275;DHT22;55463;52.324;5.122;2023-06-04T06:32:09;17.52;69.01
67275;DHT22;55463;52.324;5.122;2023-06-04T06:34:35;17.53;67.46
67275;DHT22;55463;52.324;5.122;2023-06-04T06:37:00;17.69;67.90
67275;DHT22;55463;52.324;5.122;2023-06-04T06:39:26;17.84;67.89
67275;DHT22;55463;52.324;5.122;2023-06-04T06:41:51;17.62;67.25
67275;DHT22;55463;52.324;5.122;2023-06-04T06:44:17;17.79;67.34
67275;DHT22;55463;52.324;5.122;2023-06-04T06:46:42;17.63;69.67
67275;DHT22;55463;52.324;5.122;2023-06-04T06:49:07;18.14;70.65
67275;DHT22;55463;52.324;5.122;2023-06-04T06:51:33;18.38;70.32
67275;DHT22;55463;52.324;5.122;2023-06-04T06:53:58;18.49;69.13
67275;DHT22;55463;52.324;5.122;2023-06-04T06:56:24;18.62;68.71
67275;DHT22;55463;52.324;5.122;2023-06-04T06:58:50;18.66;68.39
67275;DHT22;55463;52.324;5.122;2023-06-04T07:01:16;18.90;67.84
67275;DHT22;55463;52.324;5.122;2023-06-04T07:03:41;19.19;67.88
67275;DHT22;55463;52.324;5.122;2023-06-04T07:06:06;19.58;67.22
67275;DHT22;55463;52.324;5.122;2023-06-04T07:08:32;19.86;65.46
67275;DHT22;55463;52.324;5.122;2023-06-04T07:10:59;20.17;65.03
67275;DHT22;55463;52.324;5.122;2023-06-04T07:13:24;20.29;65.10
67275;DHT22;55463;52.324;5.122;2023-06-04T07:15:50;20.45;64.45
67275;DHT22;55463;52.324;5.122;2023-06-04T07:18:16;20.36;63.52
67275;DHT22;55463;52.324;5.122;2023-06-04T07:20:41;20.68;63.66
67275;DHT22;55463;52.324;5.122;2023-06-04T07:23:07;21.01;63.55
67275;DHT22;55463;52.324;5.122;2023-06-04T07:25:33;21.10;62.92
67275;DHT22;55463;52.324;5.122;2023-06-04T07:28:00;21.14;62.35
67275;DHT22;55463;52.324;5.122;2023-06-04T07:30:29;21.41;61.73
67275;DHT22;55463;52.324;5.122;2023-06-04T07:32:59;20.76;61.80
67275;DHT22;55463;52.324;5.122;2023-06-04T07:35:24;21.12;62.17
67275;DHT22;55463;52.324;5.122;2023-06-04T07:37:52;21.38;61.20
67275;DHT22;55463;52.324;5.122;2023-06-04T07:40:18;21.49;61.47
67275;DHT22;55463;52.324;5.122;2023-06-04T07:42:45;21.70;60.79
67275;DHT22;55463;52.324;5.122;2023-06-04T07:45:11;21.82;59.48
67275;DHT22;55463;52.324;5.122;2023-06-04T07:47:36;22.01;60.08
67275;DHT22;55463;52.324;5.122;2023-06-04T07:50:03;22.11;59.58
67275;DHT22;55463;52.324;5.122;2023-06-04T07:52:28;22.48;58.47
67275;DHT22;55463;52.324;5.122;2023-06-04T07:54:54;22.52;59.17
67275;DHT22;55463;52.324;5.122;2023-06-04T07:57:19;22.86;58.46
67275;DHT22;55463;52.324;5.122;2023-06-04T07:59:45;22.38;57.49
67275;DHT22;55463;52.324;5.122;2023-06-04T08:02:10;22.94;58.13
67275;DHT22;55463;52.324;5.122;2023-06-04T08:04:35;23.34;58.34
67275;DHT22;55463;52.324;5.122;2023-06-04T08:07:01;23.45;57.55
67275;DHT22;55463;52.324;5.122;2023-06-04T08:09:26;23.49;56.28
67275;DHT22;55463;52.324;5.122;2023-06-04T08:11:52;23.96;56.81
67275;DHT22;55463;52.324;5.122;2023-06-04T08:14:17;23.72;56.81
67275;DHT22;55463;52.324;5.122;2023-06-04T08:16:43;24.13;56.38
67275;DHT22;55463;52.324;5.122;2023-06-04T08:19:09;23.61;55.89
67275;DHT22;55463;52.324;5.122;2023-06-04T08:21:34;24.09;55.59
67275;DHT22;55463;52.324;5.122;2023-06-04T08:24:00;23.92;55.96
67275;DHT22;55463;52.324;5.122;2023-06-04T08:26:27;24.31;56.86
67275;DHT22;55463;52.324;5.122;2023-06-04T08:28:52;24.22;54.86
67275;DHT22;55463;52.324;5.122;2023-06-04T08:31:18;24.07;55.89
67275;DHT22;55463;52.324;5.122;2023-06-04T08:33:47;23.96;55.00
67275;DHT22;55463;52.324;5.122;2023-06-04T08:36:13;24.16;55.75
67275;DHT22;55463;52.324;5.122;2023-06-04T08:38:38;23.56;54.67
67275;DHT22;55463;52.324;5.122;2023-06-04T08:41:17;24.03;56.03
67275;DHT22;55463;52.324;5.122;2023-06-04T08:43:45;23.65;55.96
67275;DHT22;55463;52.324;5.122;2023-06-04T08:46:12;24.47;55.60
67275;DHT22;55463;52.324;5.122;2023-06-04T08:48:37;24.58;55.06
67275;DHT22;55463;52.324;5.122;2023-06-04T08:51:05;24.65;54.48
67275;DHT22;55463;52.324;5.122;2023-06-04T08:53:34;25.10;54.41
67275;DHT22;55463;52.324;5.122;2023-06-04T08:55:59;25.39;54.73
67275;DHT22;55463;52.324;5.122;2023-06-04T08:58:25;24.55;55.71
67275;DHT22;55463;52.324;5.122;2023-06-04T09:00:51;24.41;56.45
67275;DHT22;55463;52.324;5.122;2023-06-04T09:03:17;23.87;56.21
67275;DHT22;55463;52.324;5.122;2023-06-04T09:05:47;23.67;56.99
67275;DHT22;55463;52.324;5.122;2023-06-04T09:08:17;24.06;57.13
67275;DHT22;55463;52.324;5.122;2023-06-04T09:10:44;23.80;57.09
67275;DHT22;55463;52.324;5.122;2023-06-04T09:13:13;23.48;58.38
67275;DHT22;55463;52.324;5.122;2023-06-04T09:15:40;23.38;57.72
67275;DHT22;55463;52.324;5.122;2023-06-04T09:18:05;24.22;57.77
67275;DHT22;55463;52.324;5.122;2023-06-04T09:20:31;24.75;56.38
67275;DHT22;55463;52.324;5.122;2023-06-04T09:22:58;24.80;54.96
67275;DHT22;55463;52.324;5.122;2023-06-04T09:25:25;24.44;55.42
67275;DHT22;55463;52.324;5.122;2023-06-04T09:27:51;25.02;55.51
67275;DHT22;55463;52.324;5.122;2023-06-04T09:30:16;24.86;55.45
67275;DHT22;55463;52.324;5.122;2023-06-04T09:32:42;24.90;55.36
67275;DHT22;55463;52.324;5.122;2023-06-04T09:35:13;24.51;56.50
67275;DHT22;55463;52.324;5.122;2023-06-04T09:37:43;24.63;55.85
67275;DHT22;55463;52.324;5.122;2023-06-04T09:40:09;24.56;55.58
67275;DHT22;55463;52.324;5.122;2023-06-04T09:42:44;25.04;56.77
67275;DHT22;55463;52.324;5.122;2023-06-04T09:45:10;25.10;55.64
67275;DHT22;55463;52.324;5.122;2023-06-04T09:47:42;25.35;56.66
67275;DHT22;55463;52.324;5.122;2023-06-04T09:50:09;26.04;55.28
67275;DHT22;55463;52.324;5.122;2023-06-04T09:52:35;26.00;53.17
67275;DHT22;55463;52.324;5.122;2023-06-04T09:55:01;26.08;53.56
67275;DHT22;55463;52.324;5.122;2023-06-04T09:57:28;26.67;54.09
67275;DHT22;55463;52.324;5.122;2023-06-04T09:59:55;26.10;54.61
67275;DHT22;55463;52.324;5.122;2023-06-04T10:02:21;25.10;55.33
67275;DHT22;55463;52.324;5.122;2023-06-04T10:04:54;25.65;54.41
67275;DHT22;55463;52.324;5.122;2023-06-04T10:07:22;25.44;55.09
67275;DHT22;55463;52.324;5.122;2023-06-04T10:09:50;26.04;54.61
67275;DHT22;55463;52.324;5.122;2023-06-04T10:12:16;26.14;55.43
67275;DHT22;55463;52.324;5.122;2023-06-04T10:14:51;25.51;55.18
67275;DHT22;55463;52.324;5.122;2023-06-04T10:17:21;24.93;55.47
67275;DHT22;55463;52.324;5.122;2023-06-04T10:19:47;25.35;55.92
67275;DHT22;55463;52.324;5.122;2023-06-04T10:22:14;25.24;55.57
67275;DHT22;55463;52.324;5.122;2023-06-04T10:24:39;25.52;54.83
67275;DHT22;55463;52.324;5.122;2023-06-04T10:27:06;25.75;55.33
67275;DHT22;55463;52.324;5.122;2023-06-04T10:29:36;26.17;53.84
67275;DHT22;55463;52.324;5.122;2023-06-04T10:32:03;26.55;53.40
67275;DHT22;55463;52.324;5.122;2023-06-04T10:34:28;26.08;52.93
67275;DHT22;55463;52.324;5.122;2023-06-04T10:36:54;25.35;54.88
67275;DHT22;55463;52.324;5.122;2023-06-04T10:39:30;25.34;54.54
67275;DHT22;55463;52.324;5.122;2023-06-04T10:42:06;25.46;55.04
67275;DHT22;55463;52.324;5.122;2023-06-04T10:44:42;25.53;55.09
67275;DHT22;55463;52.324;5.122;2023-06-04T10:49:53;26.25;53.70
67275;DHT22;55463;52.324;5.122;2023-06-04T10:52:19;25.66;54.51
67275;DHT22;55463;52.324;5.122;2023-06-04T10:54:45;26.17;54.88
67275;DHT22;55463;52.324;5.122;2023-06-04T10:57:15;25.93;52.99
67275;DHT22;55463;52.324;5.122;2023-06-04T10:59:40;25.25;53.34
67275;DHT22;55463;52.324;5.122;2023-06-04T11:02:07;25.82;53.50
67275;DHT22;55463;52.324;5.122;2023-06-04T11:04:32;26.20;53.94
67275;DHT22;55463;52.324;5.122;2023-06-04T11:07:06;26.03;54.22
67275;DHT22;55463;52.324;5.122;2023-06-04T11:09:47;26.24;54.01
67275;DHT22;55463;52.324;5.122;2023-06-04T11:12:13;26.56;52.73
67275;DHT22;55463;52.324;5.122;2023-06-04T11:14:38;27.11;52.63
67275;DHT22;55463;52.324;5.122;2023-06-04T11:17:11;27.18;52.50
67275;DHT22;55463;52.324;5.122;2023-06-04T11:19:37;27.00;50.85
67275;DHT22;55463;52.324;5.122;2023-06-04T11:22:04;26.71;51.69
67275;DHT22;55463;52.324;5.122;2023-06-04T11:24:30;26.97;51.54
67275;DHT22;55463;52.324;5.122;2023-06-04T11:26:57;27.45;51.40
67275;DHT22;55463;52.324;5.122;2023-06-04T11:29:25;26.18;51.66
67275;DHT22;55463;52.324;5.122;2023-06-04T11:31:50;26.73;52.49
67275;DHT22;55463;52.324;5.122;2023-06-04T11:34:25;26.72;52.84
67275;DHT22;55463;52.324;5.122;2023-06-04T11:36:51;26.78;51.84
67275;DHT22;55463;52.324;5.122;2023-06-04T11:39:18;27.00;50.88
67275;DHT22;55463;52.324;5.122;2023-06-04T11:41:44;27.23;51.30
67275;DHT22;55463;52.324;5.122;2023-06-04T11:44:12;27.11;50.57
67275;DHT22;55463;52.324;5.122;2023-06-04T11:46:41;26.62;50.37
67275;DHT22;55463;52.324;5.122;2023-06-04T11:49:12;27.10;52.04
67275;DHT22;55463;52.324;5.122;2023-06-04T11:51:48;27.26;51.00
67275;DHT22;55463;52.324;5.122;2023-06-04T11:54:15;27.37;48.98
67275;DHT22;55463;52.324;5.122;2023-06-04T11:56:42;27.21;49.40
67275;DHT22;55463;52.324;5.122;2023-06-04T11:59:12;27.58;49.42
67275;DHT22;55463;52.324;5.122;2023-06-04T12:01:42;26.71;49.03
67275;DHT22;55463;52.324;5.122;2023-06-04T12:04:15;26.58;50.25
67275;DHT22;55463;52.324;5.122;2023-06-04T12:06:55;27.15;49.45
67275;DHT22;55463;52.324;5.122;2023-06-04T12:09:27;27.38;49.32
67275;DHT22;55463;52.324;5.122;2023-06-04T12:12:00;27.29;47.84
67275;DHT22;55463;52.324;5.122;2023-06-04T12:14:26;26.89;49.70
67275;DHT22;55463;52.324;5.122;2023-06-04T12:17:07;26.89;49.37
67275;DHT22;55463;52.324;5.122;2023-06-04T12:19:46;27.06;48.36
67275;DHT22;55463;52.324;5.122;2023-06-04T12:22:11;26.96;48.41
67275;DHT22;55463;52.324;5.122;2023-06-04T12:24:47;26.97;48.63
67275;DHT22;55463;52.324;5.122;2023-06-04T12:27:13;27.42;48.68
67275;DHT22;55463;52.324;5.122;2023-06-04T12:29:38;27.65;47.75
67275;DHT22;55463;52.324;5.122;2023-06-04T12:32:08;27.24;46.82
67275;DHT22;55463;52.324;5.122;2023-06-04T12:34:34;27.20;47.17
67275;DHT22;55463;52.324;5.122;2023-06-04T12:36:59;27.94;47.96
67275;DHT22;55463;52.324;5.122;2023-06-04T12:39:25;27.82;45.76
67275;DHT22;55463;52.324;5.122;2023-06-04T12:41:50;27.21;43.92
67275;DHT22;55463;52.324;5.122;2023-06-04T12:44:16;27.48;46.25
67275;DHT22;55463;52.324;5.122;2023-06-04T12:46:41;27.06;43.73
67275;DHT22;55463;52.324;5.122;2023-06-04T12:49:07;26.83;42.13
67275;DHT22;55463;52.324;5.122;2023-06-04T12:51:32;27.24;43.99
67275;DHT22;55463;52.324;5.122;2023-06-04T12:53:58;27.38;43.56
67275;DHT22;55463;52.324;5.122;2023-06-04T12:56:23;27.20;44.31
67275;DHT22;55463;52.324;5.122;2023-06-04T12:58:49;26.96;43.54
67275;DHT22;55463;52.324;5.122;2023-06-04T13:01:15;27.07;44.05
67275;DHT22;55463;52.324;5.122;2023-06-04T13:03:40;26.55;43.90
67275;DHT22;55463;52.324;5.122;2023-06-04T13:06:06;26.28;44.15
67275;DHT22;55463;52.324;5.122;2023-06-04T13:08:32;26.59;44.24
67275;DHT22;55463;52.324;5.122;2023-06-04T13:10:58;26.76;43.26
67275;DHT22;55463;52.324;5.122;2023-06-04T13:13:24;26.92;44.00
67275;DHT22;55463;52.324;5.122;2023-06-04T13:15:49;26.93;43.13
67275;DHT22;55463;52.324;5.122;2023-06-04T13:18:14;27.27;44.51
67275;DHT22;55463;52.324;5.122;2023-06-04T13:20:41;27.33;46.01
67275;DHT22;55463;52.324;5.122;2023-06-04T13:23:07;27.26;44.96
67275;DHT22;55463;52.324;5.122;2023-06-04T13:25:37;27.55;44.47
67275;DHT22;55463;52.324;5.122;2023-06-04T13:28:04;27.45;44.16
67275;DHT22;55463;52.324;5.122;2023-06-04T13:30:30;27.13;44.46
67275;DHT22;55463;52.324;5.122;2023-06-04T13:32:58;27.35;44.92
67275;DHT22;55463;52.324;5.122;2023-06-04T13:35:24;27.29;45.16
67275;DHT22;55463;52.324;5.122;2023-06-04T13:37:50;27.47;44.82
67275;DHT22;55463;52.324;5.122;2023-06-04T13:40:15;27.34;44.79
67275;DHT22;55463;52.324;5.122;2023-06-04T13:42:41;26.86;44.72
67275;DHT22;55463;52.324;5.122;2023-06-04T13:45:08;26.87;45.35
67275;DHT22;55463;52.324;5.122;2023-06-04T13:47:34;26.34;46.26
67275;DHT22;55463;52.324;5.122;2023-06-04T13:49:59;26.62;47.39
67275;DHT22;55463;52.324;5.122;2023-06-04T13:52:25;26.69;46.00
67275;DHT22;55463;52.324;5.122;2023-06-04T13:54:50;26.45;45.62
67275;DHT22;55463;52.324;5.122;2023-06-04T13:57:16;26.21;47.27
67275;DHT22;55463;52.324;5.122;2023-06-04T13:59:42;26.37;46.45
67275;DHT22;55463;52.324;5.122;2023-06-04T14:02:07;25.68;46.08
67275;DHT22;55463;52.324;5.122;2023-06-04T14:04:32;25.49;50.27
67275;DHT22;55463;52.324;5.122;2023-06-04T14:06:58;25.65;51.35
67275;DHT22;55463;52.324;5.122;2023-06-04T14:09:24;25.27;52.72
67275;DHT22;55463;52.324;5.122;2023-06-04T14:11:49;25.23;53.53
67275;DHT22;55463;52.324;5.122;2023-06-04T14:14:19;24.91;53.12
67275;DHT22;55463;52.324;5.122;2023-06-04T14:16:45;25.23;53.01
67275;DHT22;55463;52.324;5.122;2023-06-04T14:19:11;25.49;53.51
67275;DHT22;55463;52.324;5.122;2023-06-04T14:21:37;25.68;52.69
67275;DHT22;55463;52.324;5.122;2023-06-04T14:24:02;25.73;52.99
67275;DHT22;55463;52.324;5.122;2023-06-04T14:26:28;25.96;51.34
67275;DHT22;55463;52.324;5.122;2023-06-04T14:28:54;25.93;52.15
67275;DHT22;55463;52.324;5.122;2023-06-04T14:31:20;25.75;51.72
67275;DHT22;55463;52.324;5.122;2023-06-04T14:33:45;25.20;52.16
67275;DHT22;55463;52.324;5.122;2023-06-04T14:36:11;25.25;52.66
67275;DHT22;55463;52.324;5.122;2023-06-04T14:38:36;24.99;53.69
67275;DHT22;55463;52.324;5.122;2023-06-04T14:41:02;25.24;53.88
67275;DHT22;55463;52.324;5.122;2023-06-04T14:43:27;24.96;55.08
67275;DHT22;55463;52.324;5.122;2023-06-04T14:45:53;24.97;55.31
67275;DHT22;55463;52.324;5.122;2023-06-04T14:48:19;24.97;55.08
67275;DHT22;55463;52.324;5.122;2023-06-04T14:50:44;25.03;54.55
67275;DHT22;55463;52.324;5.122;2023-06-04T14:53:10;25.30;54.18
67275;DHT22;55463;52.324;5.122;2023-06-04T14:55:36;25.18;54.27
67275;DHT22;55463;52.324;5.122;2023-06-04T14:58:01;24.71;55.65
67275;DHT22;55463;52.324;5.122;2023-06-04T15:00:28;24.63;56.12
67275;DHT22;55463;52.324;5.122;2023-06-04T15:02:53;24.58;54.93
67275;DHT22;55463;52.324;5.122;2023-06-04T15:05:18;24.20;56.64
67275;DHT22;55463;52.324;5.122;2023-06-04T15:07:44;24.48;56.88
67275;DHT22;55463;52.324;5.122;2023-06-04T15:10:09;24.82;57.12
67275;DHT22;55463;52.324;5.122;2023-06-04T15:12:35;24.32;56.33
67275;DHT22;55463;52.324;5.122;2023-06-04T15:15:07;24.22;57.04
67275;DHT22;55463;52.324;5.122;2023-06-04T15:17:36;24.25;57.56
67275;DHT22;55463;52.324;5.122;2023-06-04T15:20:03;24.16;57.68
67275;DHT22;55463;52.324;5.122;2023-06-04T15:22:29;24.14;56.99
67275;DHT22;55463;52.324;5.122;2023-06-04T15:24:54;24.04;57.73
67275;DHT22;55463;52.324;5.122;2023-06-04T15:27:20;24.21;57.61
67275;DHT22;55463;52.324;5.122;2023-06-04T15:29:45;24.06;57.43
67275;DHT22;55463;52.324;5.122;2023-06-04T15:32:11;24.38;58.00
67275;DHT22;55463;52.324;5.122;2023-06-04T15:34:36;24.17;57.61